Baquedano, Chile
Current Conditions -  °F | °C
As of 1:00 PM on Monday 20 Oct 2014 (Local Time) from SCFA Reporting Station
Scattered Clouds Scattered Clouds  
Wind Chill: 64°   Ceiling: Unl
Heat Index: 64°   Visibility: 6mi
Dew Point: 52°   Wind: 12mph
Humidity: 64%   Direction: 200°SSW
Pressure: 29.94"   Gusts: NA
Location:  23.33°S, 69.85°W
Report Text: SCFA 201700Z 20010KT 9999 SCT023 18/11 Q1014 NOSIG
Loading
Personal Weather Stations






























Interactive Weather Map
Tropical Storm Tracking
New forecast layout! Learn more

10-Day Weather Forecast

Advertisements
Track Severe Weather on mobile